createdAt,value
2022-11-09T00:01:07.577Z,3.30
2022-11-09T00:03:36.397Z,4.97
2022-11-09T00:06:05.141Z,3.13
2022-11-09T00:08:37.637Z,6.43
2022-11-09T00:11:08.515Z,8.47
2022-11-09T00:13:38.964Z,3.20
2022-11-09T00:16:09.270Z,7.03
2022-11-09T00:18:39.635Z,9.83
2022-11-09T00:21:17.290Z,3.13
2022-11-09T00:23:47.919Z,5.73
2022-11-09T00:26:19.641Z,6.10
2022-11-09T00:28:48.795Z,4.27
2022-11-09T00:31:20.813Z,3.93
2022-11-09T00:33:50.872Z,6.17
2022-11-09T00:36:21.248Z,6.57
2022-11-09T00:38:54.817Z,4.80
2022-11-09T00:41:24.428Z,4.33
2022-11-09T00:43:54.096Z,4.50
2022-11-09T00:46:23.677Z,4.63
2022-11-09T00:48:53.287Z,5.00
2022-11-09T00:51:22.084Z,6.17
2022-11-09T00:53:54.893Z,3.50
2022-11-09T00:56:24.766Z,3.10
2022-11-09T00:58:56.766Z,2.87
2022-11-09T01:01:25.842Z,3.67
2022-11-09T01:03:55.011Z,4.10
2022-11-09T01:06:27.207Z,3.90
2022-11-09T01:08:57.452Z,4.47
2022-11-09T01:11:26.456Z,4.03
2022-11-09T01:13:56.106Z,4.20
2022-11-09T01:16:25.833Z,4.13
2022-11-09T01:18:56.199Z,5.07
2022-11-09T01:21:27.858Z,5.83
2022-11-09T01:23:59.173Z,7.47
2022-11-09T01:26:30.544Z,7.73
2022-11-09T01:28:59.370Z,5.07
2022-11-09T01:31:28.500Z,5.53
2022-11-09T01:33:57.443Z,3.77
2022-11-09T01:36:27.870Z,5.40
2022-11-09T01:38:58.148Z,5.87
2022-11-09T01:41:29.809Z,6.63
2022-11-09T01:44:13.524Z,5.17
2022-11-09T01:46:53.832Z,7.83
2022-11-09T01:49:37.920Z,4.77
2022-11-09T01:52:13.532Z,4.30
2022-11-09T01:54:49.985Z,3.73
2022-11-09T01:57:31.671Z,4.37
2022-11-09T02:00:07.591Z,8.23
2022-11-09T02:02:48.410Z,5.13
2022-11-09T02:05:25.220Z,4.37
2022-11-09T02:07:57.851Z,8.20
2022-11-09T02:11:02.067Z,6.47
2022-11-09T02:13:34.676Z,4.30
2022-11-09T02:16:11.748Z,4.60
2022-11-09T02:18:50.094Z,4.50
2022-11-09T02:21:21.081Z,3.17
2022-11-09T02:23:50.822Z,5.40
2022-11-09T02:26:28.861Z,4.57
2022-11-09T02:29:02.668Z,6.23
2022-11-09T02:31:37.641Z,8.73
2022-11-09T02:34:10.811Z,5.10
2022-11-09T02:36:43.633Z,6.63
2022-11-09T02:39:23.200Z,5.23
2022-11-09T02:42:02.757Z,5.57
2022-11-09T02:44:42.100Z,5.57
2022-11-09T02:47:10.955Z,7.17
2022-11-09T02:49:39.727Z,5.13
2022-11-09T02:52:11.709Z,6.47
2022-11-09T02:54:40.503Z,6.23
2022-11-09T02:57:09.540Z,5.57
2022-11-09T02:59:39.453Z,6.70
2022-11-09T03:02:09.016Z,6.40
2022-11-09T03:04:37.801Z,5.90
2022-11-09T03:07:09.036Z,7.03
2022-11-09T03:09:40.700Z,10.37
2022-11-09T03:12:23.420Z,8.83
2022-11-09T03:14:53.440Z,7.50
2022-11-09T03:17:22.333Z,9.10
2022-11-09T03:19:51.100Z,7.90
2022-11-09T03:22:21.014Z,9.17
2022-11-09T03:24:52.106Z,8.30
2022-11-09T03:27:20.987Z,8.63
2022-11-09T03:29:51.322Z,8.07
2022-11-09T03:32:20.059Z,9.33
2022-11-09T03:34:49.338Z,6.13
2022-11-09T03:37:18.118Z,8.07
2022-11-09T03:39:47.484Z,9.00
2022-11-09T03:42:18.470Z,6.77
2022-11-09T03:44:47.192Z,10.13
2022-11-09T03:47:15.932Z,7.87
2022-11-09T03:49:44.644Z,11.00
2022-11-09T03:52:13.391Z,8.17
2022-11-09T03:54:42.098Z,9.33
2022-11-09T03:57:10.778Z,11.67
2022-11-09T04:00:19.983Z,8.07
2022-11-09T04:02:50.644Z,9.20
2022-11-09T04:05:20.290Z,8.93
2022-11-09T04:07:52.313Z,10.70
2022-11-09T04:10:22.816Z,12.73
2022-11-09T04:14:22.665Z,11.40
2022-11-09T04:17:22.659Z,12.03
2022-11-09T04:19:51.436Z,14.03
2022-11-09T04:22:20.251Z,9.60
2022-11-09T04:24:48.957Z,8.80
2022-11-09T04:27:19.798Z,12.57
2022-11-09T04:29:48.856Z,11.97
2022-11-09T04:32:45.174Z,11.50
2022-11-09T04:35:13.906Z,10.40
2022-11-09T04:37:42.668Z,15.00
2022-11-09T04:40:15.111Z,15.23
2022-11-09T04:42:43.833Z,12.53
2022-11-09T04:45:12.913Z,12.47
2022-11-09T04:47:41.824Z,11.83
2022-11-09T04:55:02.052Z,13.60
2022-11-09T05:02:08.863Z,14.83
2022-11-09T05:04:37.751Z,12.57
2022-11-09T05:07:07.030Z,12.17
2022-11-09T05:09:39.614Z,11.77
2022-11-09T05:16:48.981Z,17.53
2022-11-09T05:20:33.739Z,12.53
2022-11-09T05:23:20.726Z,13.73
2022-11-09T05:25:50.529Z,12.53
2022-11-09T05:28:20.330Z,11.87
2022-11-09T05:30:49.585Z,12.20
2022-11-09T05:34:38.160Z,11.30
2022-11-09T05:37:08.480Z,12.80
2022-11-09T05:39:42.115Z,14.50
2022-11-09T05:42:12.990Z,12.37
2022-11-09T05:44:44.036Z,13.00
2022-11-09T05:47:12.769Z,11.27
2022-11-09T05:49:41.539Z,13.10
2022-11-09T05:52:11.659Z,14.30
2022-11-09T05:54:40.411Z,12.83
2022-11-09T05:57:09.444Z,13.33
2022-11-09T05:59:38.333Z,11.03
2022-11-09T06:02:07.114Z,13.53
2022-11-09T06:04:35.945Z,14.20
2022-11-09T06:07:04.730Z,12.23
2022-11-09T06:09:56.301Z,12.30
2022-11-09T06:13:15.809Z,13.97
2022-11-09T06:15:44.475Z,14.60
2022-11-09T06:18:13.258Z,14.37
2022-11-09T06:20:41.969Z,13.40
2022-11-09T06:23:12.175Z,21.13
2022-11-09T06:25:42.508Z,19.07
2022-11-09T06:28:11.260Z,12.40
2022-11-09T06:30:40.739Z,12.80
2022-11-09T06:33:09.664Z,14.13
2022-11-09T06:35:38.689Z,12.93
2022-11-09T06:38:07.412Z,15.87
2022-11-09T06:40:37.231Z,17.07
2022-11-09T06:43:07.929Z,14.07
2022-11-09T06:45:37.083Z,18.40
2022-11-09T06:48:06.436Z,15.43
2022-11-09T06:50:35.795Z,13.43
2022-11-09T06:53:07.605Z,14.93
2022-11-09T06:55:38.067Z,14.40
2022-11-09T06:58:11.221Z,13.73
2022-11-09T07:00:40.150Z,16.20
2022-11-09T07:03:08.854Z,17.70
2022-11-09T07:05:40.321Z,19.73
2022-11-09T07:08:09.235Z,26.10
2022-11-09T07:10:38.572Z,18.30
2022-11-09T07:13:09.692Z,34.53
2022-11-09T07:15:39.925Z,21.97
2022-11-09T07:18:12.922Z,25.30
2022-11-09T07:20:41.689Z,22.90
2022-11-09T07:23:10.552Z,18.53
2022-11-09T07:25:39.403Z,26.90
2022-11-09T07:28:12.697Z,21.73
2022-11-09T07:30:41.696Z,20.70
2022-11-09T07:33:18.252Z,20.00
2022-11-09T07:35:48.036Z,18.87
2022-11-09T07:38:17.188Z,20.33
2022-11-09T07:40:45.924Z,22.67
2022-11-09T07:43:17.505Z,15.43
2022-11-09T07:45:51.343Z,19.97
2022-11-09T07:48:20.050Z,18.07
2022-11-09T07:50:48.798Z,16.87
2022-11-09T07:53:18.291Z,120.57
2022-11-09T07:55:47.177Z,86.23
2022-11-09T07:58:17.648Z,47.47
2022-11-09T08:00:46.522Z,43.83
2022-11-09T08:03:15.231Z,61.00
2022-11-09T08:05:43.896Z,61.57
2022-11-09T08:08:15.724Z,42.80
2022-11-09T08:10:50.563Z,54.30
2022-11-09T08:13:22.026Z,19.40
2022-11-09T08:15:51.082Z,24.90
2022-11-09T08:18:22.850Z,17.67
2022-11-09T08:20:51.812Z,21.23
2022-11-09T08:23:22.544Z,14.73
2022-11-09T08:25:52.524Z,21.80
2022-11-09T08:28:23.477Z,16.83
2022-11-09T08:30:58.656Z,21.77
2022-11-09T08:33:29.073Z,22.90
2022-11-09T08:35:58.394Z,15.80
2022-11-09T08:38:27.147Z,14.80
2022-11-09T08:40:59.508Z,14.23
2022-11-09T08:43:29.786Z,15.00
2022-11-09T08:45:58.618Z,16.57
2022-11-09T08:48:27.664Z,17.37
2022-11-09T08:50:59.160Z,15.67
2022-11-09T08:53:30.673Z,15.37
2022-11-09T08:55:59.609Z,19.37
2022-11-09T08:58:29.786Z,26.17
2022-11-09T09:00:58.661Z,12.27
2022-11-09T09:03:27.409Z,21.23
2022-11-09T09:05:56.575Z,16.37
2022-11-09T09:08:26.040Z,12.50
2022-11-09T09:10:54.764Z,13.73
2022-11-09T09:13:23.722Z,27.40
2022-11-09T09:15:53.883Z,40.63
2022-11-09T09:18:23.109Z,34.23
2022-11-09T09:20:52.194Z,34.37
2022-11-09T09:23:20.943Z,33.87
2022-11-09T09:25:49.611Z,21.50
2022-11-09T09:28:18.520Z,18.17
2022-11-09T09:30:47.472Z,16.97
2022-11-09T09:33:17.621Z,17.20
2022-11-09T09:35:46.315Z,16.43
2022-11-09T09:38:15.061Z,16.17
2022-11-09T09:40:58.460Z,14.93
2022-11-09T09:43:41.393Z,8.80
2022-11-09T09:46:21.296Z,12.70
2022-11-09T09:48:58.491Z,10.37
2022-11-09T09:51:40.280Z,10.17
2022-11-09T09:54:18.764Z,10.20
2022-11-09T09:56:51.163Z,9.03
2022-11-09T09:59:33.243Z,8.80
2022-11-09T10:02:02.087Z,12.93
2022-11-09T10:04:38.741Z,22.47
2022-11-09T10:07:19.117Z,24.80
2022-11-09T10:10:07.340Z,21.73
2022-11-09T10:12:59.191Z,22.97
2022-11-09T10:15:36.687Z,10.23
2022-11-09T10:18:37.099Z,20.03
2022-11-09T10:21:24.513Z,18.03
2022-11-09T10:24:16.092Z,14.50
2022-11-09T10:26:50.709Z,9.87
2022-11-09T10:29:26.267Z,8.77
2022-11-09T10:31:58.796Z,10.80
2022-11-09T10:34:34.322Z,7.50
2022-11-09T10:37:14.852Z,6.33
2022-11-09T10:39:53.681Z,5.70
2022-11-09T11:47:12.389Z,7.23
2022-11-09T11:50:46.800Z,6.90
2022-11-09T11:54:08.944Z,7.90
2022-11-09T12:00:27.150Z,9.97
2022-11-09T12:03:41.616Z,7.73
2022-11-09T12:16:19.028Z,11.33
2022-11-09T12:19:45.373Z,10.50
2022-11-09T12:22:48.020Z,10.50
2022-11-09T12:28:59.444Z,10.83
2022-11-09T12:32:04.811Z,12.00
2022-11-09T12:35:17.682Z,10.50
2022-11-09T12:38:14.790Z,11.43
2022-11-09T12:41:08.941Z,14.13
2022-11-09T12:44:05.347Z,10.03
2022-11-09T12:47:04.220Z,11.37
2022-11-09T12:49:55.018Z,13.27
2022-11-09T12:52:45.012Z,12.93
2022-11-09T12:55:45.136Z,14.17
2022-11-09T12:58:35.987Z,14.00
2022-11-09T13:01:52.366Z,13.37
2022-11-09T13:04:39.598Z,14.67
2022-11-09T13:07:54.258Z,12.27
2022-11-09T13:10:41.973Z,11.60
2022-11-09T13:13:29.204Z,14.10
2022-11-09T13:16:37.818Z,11.70
2022-11-09T13:19:55.218Z,13.40
2022-11-09T13:23:06.924Z,13.63
2022-11-09T13:25:55.989Z,11.50
2022-11-09T13:29:23.681Z,11.10
2022-11-09T13:32:35.350Z,12.93
2022-11-09T13:36:15.371Z,12.93
2022-11-09T13:39:33.213Z,11.13
2022-11-09T13:42:30.709Z,16.77
2022-11-09T13:48:46.208Z,12.57
2022-11-09T13:51:51.333Z,11.63
2022-11-09T13:54:45.482Z,11.10
2022-11-09T13:57:34.622Z,11.60
2022-11-09T14:00:26.969Z,11.63
2022-11-09T14:03:25.141Z,13.87
2022-11-09T14:06:15.262Z,14.10
2022-11-09T14:09:04.960Z,13.77
2022-11-09T14:12:33.776Z,15.50
2022-11-09T14:15:46.528Z,13.53
2022-11-09T14:18:51.188Z,14.23
2022-11-09T14:21:47.322Z,13.23
2022-11-09T14:24:39.594Z,16.00
2022-11-09T14:27:27.510Z,14.17
2022-11-09T14:30:23.722Z,14.20
2022-11-09T14:33:27.192Z,14.80
2022-11-09T14:36:15.628Z,19.13
2022-11-09T14:39:13.721Z,12.40
2022-11-09T14:42:02.427Z,15.80
2022-11-09T14:44:50.873Z,18.50
2022-11-09T14:47:40.047Z,16.43
2022-11-09T14:50:31.900Z,20.00
2022-11-09T14:53:26.447Z,15.27
2022-11-09T14:56:19.383Z,17.60
2022-11-09T14:59:08.529Z,13.47
2022-11-09T15:02:07.676Z,18.30
2022-11-09T15:04:57.273Z,18.20
2022-11-09T15:07:51.490Z,15.50
2022-11-09T15:10:40.325Z,16.33
2022-11-09T15:13:36.546Z,13.40
2022-11-09T15:16:30.632Z,24.00
2022-11-09T15:19:30.524Z,20.73
2022-11-09T15:22:48.610Z,22.00
2022-11-09T15:25:55.659Z,25.57
2022-11-09T15:28:51.557Z,18.53
2022-11-09T15:31:39.261Z,22.70
2022-11-09T15:34:33.359Z,14.97
2022-11-09T15:38:27.945Z,16.47
2022-11-09T15:41:19.493Z,16.43
2022-11-09T15:44:09.655Z,16.57
2022-11-09T15:47:00.137Z,20.37
2022-11-09T15:49:47.956Z,20.87
2022-11-09T15:52:40.845Z,20.07
2022-11-09T15:55:33.349Z,17.87
2022-11-09T15:58:22.073Z,18.17
2022-11-09T16:01:14.578Z,20.63
2022-11-09T16:04:03.253Z,22.20
2022-11-09T16:06:52.046Z,23.93
2022-11-09T16:09:42.025Z,18.63
2022-11-09T16:12:35.616Z,17.90
2022-11-09T16:15:24.899Z,21.90
2022-11-09T16:18:16.810Z,25.40
2022-11-09T16:21:49.140Z,17.60
2022-11-09T16:24:37.158Z,18.00
2022-11-09T16:30:34.735Z,20.50
2022-11-09T16:33:23.715Z,18.97
2022-11-09T16:36:20.754Z,17.63
2022-11-09T16:39:19.797Z,19.77
2022-11-09T16:42:13.670Z,21.17
2022-11-09T16:45:11.796Z,19.70
2022-11-09T16:47:59.888Z,16.93
2022-11-09T16:50:49.033Z,18.17
2022-11-09T16:54:06.341Z,18.43
2022-11-09T16:56:55.035Z,24.37
2022-11-09T16:59:42.421Z,24.27
2022-11-09T17:02:38.184Z,26.20
2022-11-09T17:05:25.570Z,23.47
2022-11-09T17:08:17.143Z,24.53
2022-11-09T17:11:10.219Z,29.00
2022-11-09T17:13:58.527Z,31.03
2022-11-09T17:16:47.499Z,39.53
2022-11-09T17:19:37.059Z,28.30
2022-11-09T17:22:29.288Z,33.20
2022-11-09T17:25:23.527Z,29.73
2022-11-09T17:29:27.628Z,31.43
2022-11-09T17:32:22.969Z,33.83
2022-11-09T17:35:14.132Z,31.43
2022-11-09T17:38:06.036Z,22.67
2022-11-09T17:41:02.392Z,21.63
2022-11-09T17:43:49.804Z,20.83
2022-11-09T17:46:45.332Z,17.80
2022-11-09T17:49:35.204Z,21.70
2022-11-09T17:52:29.092Z,19.67
2022-11-09T17:55:17.534Z,21.70
2022-11-09T17:58:06.877Z,21.13
2022-11-09T18:01:07.654Z,20.30
2022-11-09T18:03:55.736Z,19.30
2022-11-09T18:06:44.085Z,19.33
2022-11-09T18:09:47.007Z,21.87
2022-11-09T18:12:37.230Z,26.03
2022-11-09T18:16:16.171Z,20.37
2022-11-09T18:19:07.059Z,41.03
2022-11-09T18:21:55.037Z,23.93
2022-11-09T18:24:43.668Z,22.47
2022-11-09T18:27:31.220Z,22.13
2022-11-09T18:30:20.218Z,23.03
2022-11-09T18:33:12.792Z,23.73
2022-11-09T18:36:09.380Z,21.33
2022-11-09T18:38:57.670Z,20.23
2022-11-09T18:41:45.607Z,22.17
2022-11-09T18:44:32.889Z,23.57
2022-11-09T18:47:20.651Z,18.77
2022-11-09T18:50:11.370Z,19.73
2022-11-09T18:53:00.629Z,31.33
2022-11-09T18:55:48.518Z,29.37
2022-11-09T18:58:41.265Z,58.37
2022-11-09T19:01:48.630Z,41.50
2022-11-09T19:04:37.022Z,32.63
2022-11-09T19:07:25.909Z,31.00
2022-11-09T19:14:57.522Z,20.00
2022-11-09T19:17:56.281Z,18.33
2022-11-09T19:20:44.203Z,17.13
2022-11-09T19:23:34.874Z,16.73
2022-11-09T19:27:17.361Z,18.13
2022-11-09T19:30:09.327Z,16.87
2022-11-09T19:33:28.400Z,17.57
2022-11-09T19:36:34.606Z,18.67
2022-11-09T19:39:28.325Z,19.47
2022-11-09T19:42:27.133Z,16.97
2022-11-09T19:45:15.744Z,16.63
2022-11-09T19:48:05.689Z,13.83
2022-11-09T19:50:54.822Z,18.53
2022-11-09T19:53:44.399Z,15.97
2022-11-09T19:56:37.075Z,17.60
2022-11-09T19:59:24.915Z,13.67
2022-11-09T20:02:12.980Z,15.57
2022-11-09T20:05:09.993Z,17.37
2022-11-09T20:07:57.487Z,14.30
2022-11-09T20:10:45.038Z,15.73
2022-11-09T20:13:34.268Z,13.87
2022-11-09T20:16:22.833Z,14.53
2022-11-09T20:19:14.411Z,13.93
2022-11-09T20:22:03.505Z,16.63
2022-11-09T20:24:51.308Z,16.97
2022-11-09T20:27:39.216Z,16.87
2022-11-09T20:30:28.818Z,16.77
2022-11-09T20:33:17.366Z,19.47
2022-11-09T20:36:06.090Z,16.60
2022-11-09T20:46:40.005Z,14.70
2022-11-09T20:49:27.153Z,14.10
2022-11-09T20:52:14.238Z,18.33
2022-11-09T20:55:04.396Z,14.83
2022-11-09T20:57:51.604Z,16.07
2022-11-09T21:00:40.625Z,13.13
2022-11-09T21:03:29.140Z,15.50
2022-11-09T21:06:17.765Z,16.27
2022-11-09T21:09:05.849Z,13.07
2022-11-09T21:12:10.529Z,15.33
2022-11-09T21:14:57.836Z,14.83
2022-11-09T21:17:45.225Z,13.10
2022-11-09T21:20:36.167Z,15.57
2022-11-09T21:23:41.353Z,15.90
2022-11-09T21:26:47.274Z,17.93
2022-11-09T21:29:53.380Z,17.93
2022-11-09T21:32:41.190Z,17.20
2022-11-09T21:35:28.648Z,17.23
2022-11-09T21:38:17.151Z,18.70
2022-11-09T21:41:21.824Z,19.00
2022-11-09T21:44:11.547Z,16.57
2022-11-09T21:47:00.040Z,18.70
2022-11-09T21:49:47.130Z,15.10
2022-11-09T21:52:34.078Z,18.03
2022-11-09T21:55:23.940Z,16.30
2022-11-09T21:58:11.077Z,18.37
2022-11-09T22:01:02.569Z,19.30
2022-11-09T22:03:51.250Z,21.47
2022-11-09T22:06:41.578Z,14.37
2022-11-09T22:09:35.705Z,18.80
2022-11-09T22:12:51.260Z,17.70
2022-11-09T22:15:55.578Z,17.20
2022-11-09T22:19:00.411Z,15.53
2022-11-09T22:21:47.470Z,18.37
2022-11-09T22:24:34.527Z,15.67
2022-11-09T22:27:22.573Z,20.77
2022-11-09T22:30:12.575Z,17.57
2022-11-09T22:33:00.413Z,17.90
2022-11-09T22:35:55.889Z,15.13
2022-11-09T22:38:46.140Z,18.87
2022-11-09T22:41:33.767Z,10.63
2022-11-09T22:44:21.475Z,14.90
2022-11-09T22:47:10.055Z,12.37
2022-11-09T22:49:57.466Z,12.40
2022-11-09T22:52:44.610Z,10.67
2022-11-09T22:55:32.391Z,11.63
2022-11-09T22:58:19.465Z,11.20
2022-11-09T23:01:11.766Z,12.07
2022-11-09T23:04:00.651Z,10.27
2022-11-09T23:06:48.990Z,10.30
2022-11-09T23:09:36.336Z,11.40
2022-11-09T23:12:23.658Z,9.77
2022-11-09T23:15:13.399Z,11.70
2022-11-09T23:18:18.639Z,8.90
2022-11-09T23:21:08.015Z,10.43
2022-11-09T23:23:57.978Z,7.73
2022-11-09T23:26:45.483Z,7.60
2022-11-09T23:29:32.781Z,8.67
2022-11-09T23:32:19.978Z,9.13
2022-11-09T23:35:09.335Z,5.57
2022-11-09T23:38:03.255Z,4.83
2022-11-09T23:40:51.241Z,5.57
2022-11-09T23:43:39.232Z,6.20
2022-11-09T23:46:26.497Z,5.07
2022-11-09T23:49:13.977Z,4.53
2022-11-09T23:52:01.597Z,6.87
2022-11-09T23:54:50.419Z,3.70
2022-11-09T23:57:37.635Z,5.20
